sensor_id;sensor_type;location;lat;lon;timestamp;pressure;altitude;pressure_sealevel;temperature;humidity
9110;BME280;4590;51.462;6.692;2022-12-24T00:00:16;100395.69;;;12.34;72.89
9110;BME280;4590;51.462;6.692;2022-12-24T00:02:42;100400.38;;;12.33;73.08
9110;BME280;4590;51.462;6.692;2022-12-24T00:05:08;100401.84;;;12.30;72.87
9110;BME280;4590;51.462;6.692;2022-12-24T00:07:33;100408.16;;;12.31;72.68
9110;BME280;4590;51.462;6.692;2022-12-24T00:09:58;100400.22;;;12.29;72.55
9110;BME280;4590;51.462;6.692;2022-12-24T00:12:24;100401.03;;;12.30;72.44
9110;BME280;4590;51.462;6.692;2022-12-24T00:14:49;100414.00;;;12.29;72.43
9110;BME280;4590;51.462;6.692;2022-12-24T00:17:15;100406.25;;;12.23;72.26
9110;BME280;4590;51.462;6.692;2022-12-24T00:19:40;100409.81;;;12.23;72.22
9110;BME280;4590;51.462;6.692;2022-12-24T00:22:07;100410.94;;;12.22;71.98
9110;BME280;4590;51.462;6.692;2022-12-24T00:24:32;100417.44;;;12.18;71.85
9110;BME280;4590;51.462;6.692;2022-12-24T00:26:57;100420.84;;;12.15;71.95
9110;BME280;4590;51.462;6.692;2022-12-24T00:29:23;100414.50;;;12.14;71.83
9110;BME280;4590;51.462;6.692;2022-12-24T00:31:48;100429.59;;;12.17;72.03
9110;BME280;4590;51.462;6.692;2022-12-24T00:34:13;100426.34;;;12.15;72.04
9110;BME280;4590;51.462;6.692;2022-12-24T00:36:38;100427.97;;;12.16;71.81
9110;BME280;4590;51.462;6.692;2022-12-24T00:39:04;100422.78;;;12.14;72.08
9110;BME280;4590;51.462;6.692;2022-12-24T00:41:29;100427.03;;;12.12;71.54
9110;BME280;4590;51.462;6.692;2022-12-24T00:43:57;100427.66;;;12.09;71.19
9110;BME280;4590;51.462;6.692;2022-12-24T00:46:24;100427.50;;;12.05;71.67
9110;BME280;4590;51.462;6.692;2022-12-24T00:48:50;100436.91;;;12.04;71.93
9110;BME280;4590;51.462;6.692;2022-12-24T00:51:16;100435.59;;;12.02;71.47
9110;BME280;4590;51.462;6.692;2022-12-24T00:53:42;100437.53;;;12.01;71.70
9110;BME280;4590;51.462;6.692;2022-12-24T00:56:08;100445.63;;;11.98;71.50
9110;BME280;4590;51.462;6.692;2022-12-24T00:58:33;100456.03;;;11.92;71.70
9110;BME280;4590;51.462;6.692;2022-12-24T01:00:59;100455.72;;;11.93;71.55
9110;BME280;4590;51.462;6.692;2022-12-24T01:03:25;100453.59;;;11.90;71.86
9110;BME280;4590;51.462;6.692;2022-12-24T01:06:01;100468.50;;;11.89;71.54
9110;BME280;4590;51.462;6.692;2022-12-24T01:08:26;100468.97;;;11.83;71.94
9110;BME280;4590;51.462;6.692;2022-12-24T01:10:52;100476.75;;;11.81;71.54
9110;BME280;4590;51.462;6.692;2022-12-24T01:13:17;100479.50;;;11.81;72.04
9110;BME280;4590;51.462;6.692;2022-12-24T01:15:42;100483.53;;;11.75;72.05
9110;BME280;4590;51.462;6.692;2022-12-24T01:18:07;100480.78;;;11.75;72.23
9110;BME280;4590;51.462;6.692;2022-12-24T01:20:33;100487.94;;;11.76;72.14
9110;BME280;4590;51.462;6.692;2022-12-24T01:22:58;100497.94;;;11.72;71.88
9110;BME280;4590;51.462;6.692;2022-12-24T01:25:24;100491.94;;;11.70;71.75
9110;BME280;4590;51.462;6.692;2022-12-24T01:27:49;100495.31;;;11.67;71.98
9110;BME280;4590;51.462;6.692;2022-12-24T01:30:14;100501.66;;;11.67;72.04
9110;BME280;4590;51.462;6.692;2022-12-24T01:32:40;100502.31;;;11.64;71.89
9110;BME280;4590;51.462;6.692;2022-12-24T01:35:06;100506.00;;;11.59;71.82
9110;BME280;4590;51.462;6.692;2022-12-24T01:37:31;100500.81;;;11.58;72.30
9110;BME280;4590;51.462;6.692;2022-12-24T01:39:56;100501.75;;;11.53;72.12
9110;BME280;4590;51.462;6.692;2022-12-24T01:42:46;100507.44;;;11.48;72.07
9110;BME280;4590;51.462;6.692;2022-12-24T01:48:13;100512.09;;;11.39;71.89
9110;BME280;4590;51.462;6.692;2022-12-24T01:50:39;100510.31;;;11.43;72.27
9110;BME280;4590;51.462;6.692;2022-12-24T01:53:05;100515.34;;;11.41;72.13
9110;BME280;4590;51.462;6.692;2022-12-24T01:55:32;100518.41;;;11.40;72.58
9110;BME280;4590;51.462;6.692;2022-12-24T01:57:58;100525.84;;;11.39;72.47
9110;BME280;4590;51.462;6.692;2022-12-24T02:00:24;100530.56;;;11.39;72.60
9110;BME280;4590;51.462;6.692;2022-12-24T02:02:51;100535.25;;;11.38;72.62
9110;BME280;4590;51.462;6.692;2022-12-24T02:05:27;100537.50;;;11.36;72.48
9110;BME280;4590;51.462;6.692;2022-12-24T02:07:53;100545.25;;;11.34;72.60
9110;BME280;4590;51.462;6.692;2022-12-24T02:10:21;100544.44;;;11.34;72.70
9110;BME280;4590;51.462;6.692;2022-12-24T02:12:47;100559.38;;;11.33;72.94
9110;BME280;4590;51.462;6.692;2022-12-24T02:15:14;100561.78;;;11.34;73.09
9110;BME280;4590;51.462;6.692;2022-12-24T02:26:35;100568.78;;;11.32;72.80
9110;BME280;4590;51.462;6.692;2022-12-24T02:32:01;100582.22;;;11.33;73.08
9110;BME280;4590;51.462;6.692;2022-12-24T02:34:38;100587.75;;;11.33;73.26
9110;BME280;4590;51.462;6.692;2022-12-24T02:37:09;100592.91;;;11.35;73.19
9110;BME280;4590;51.462;6.692;2022-12-24T02:39:56;100598.91;;;11.37;73.46
9110;BME280;4590;51.462;6.692;2022-12-24T02:42:31;100591.78;;;11.36;72.97
9110;BME280;4590;51.462;6.692;2022-12-24T02:45:05;100594.84;;;11.34;73.26
9110;BME280;4590;51.462;6.692;2022-12-24T02:47:32;100601.38;;;11.38;73.28
9110;BME280;4590;51.462;6.692;2022-12-24T02:50:00;100601.69;;;11.37;73.14
9110;BME280;4590;51.462;6.692;2022-12-24T02:52:32;100603.47;;;11.33;72.68
9110;BME280;4590;51.462;6.692;2022-12-24T02:55:11;100606.69;;;11.35;72.86
9110;BME280;4590;51.462;6.692;2022-12-24T03:00:08;100609.09;;;11.28;72.62
9110;BME280;4590;51.462;6.692;2022-12-24T03:02:43;100607.97;;;11.29;72.98
9110;BME280;4590;51.462;6.692;2022-12-24T03:05:19;100613.28;;;11.25;72.68
9110;BME280;4590;51.462;6.692;2022-12-24T03:10:38;100621.16;;;11.18;72.83
9110;BME280;4590;51.462;6.692;2022-12-24T03:13:13;100612.88;;;11.18;73.01
9110;BME280;4590;51.462;6.692;2022-12-24T03:15:40;100612.88;;;11.18;73.01
9110;BME280;4590;51.462;6.692;2022-12-24T03:18:07;100620.38;;;11.17;73.13
9110;BME280;4590;51.462;6.692;2022-12-24T03:20:38;100624.56;;;11.15;73.34
9110;BME280;4590;51.462;6.692;2022-12-24T03:23:04;100619.56;;;11.17;73.10
9110;BME280;4590;51.462;6.692;2022-12-24T03:25:31;100627.00;;;11.16;73.50
9110;BME280;4590;51.462;6.692;2022-12-24T03:27:57;100621.16;;;11.18;73.40
9110;BME280;4590;51.462;6.692;2022-12-24T03:30:26;100629.41;;;11.18;73.50
9110;BME280;4590;51.462;6.692;2022-12-24T03:32:51;100624.72;;;11.18;73.38
9110;BME280;4590;51.462;6.692;2022-12-24T03:35:17;100630.72;;;11.20;73.43
9110;BME280;4590;51.462;6.692;2022-12-24T03:37:42;100630.72;;;11.20;73.74
9110;BME280;4590;51.462;6.692;2022-12-24T03:40:08;100633.16;;;11.22;73.65
9110;BME280;4590;51.462;6.692;2022-12-24T03:42:34;100640.00;;;11.24;73.52
9110;BME280;4590;51.462;6.692;2022-12-24T03:44:59;100640.81;;;11.25;73.56
9110;BME280;4590;51.462;6.692;2022-12-24T03:47:24;100640.81;;;11.25;73.45
9110;BME280;4590;51.462;6.692;2022-12-24T03:49:50;100636.63;;;11.28;73.85
9110;BME280;4590;51.462;6.692;2022-12-24T03:52:15;100643.25;;;11.27;73.73
9110;BME280;4590;51.462;6.692;2022-12-24T03:54:40;100642.94;;;11.28;73.74
9110;BME280;4590;51.462;6.692;2022-12-24T03:57:05;100643.44;;;11.30;73.47
9110;BME280;4590;51.462;6.692;2022-12-24T03:59:31;100636.31;;;11.29;73.58
9110;BME280;4590;51.462;6.692;2022-12-24T04:01:56;100632.44;;;11.30;73.70
9110;BME280;4590;51.462;6.692;2022-12-24T04:04:21;100643.44;;;11.30;73.58
9110;BME280;4590;51.462;6.692;2022-12-24T04:06:47;100631.63;;;11.30;73.64
9110;BME280;4590;51.462;6.692;2022-12-24T04:09:12;100635.19;;;11.30;73.98
9110;BME280;4590;51.462;6.692;2022-12-24T04:11:38;100637.13;;;11.30;73.66
9110;BME280;4590;51.462;6.692;2022-12-24T04:14:03;100648.38;;;11.19;74.49
9110;BME280;4590;51.462;6.692;2022-12-24T04:16:29;100644.28;;;11.31;74.23
9110;BME280;4590;51.462;6.692;2022-12-24T04:18:54;100652.22;;;11.32;74.07
9110;BME280;4590;51.462;6.692;2022-12-24T04:21:19;100655.44;;;11.34;74.35
9110;BME280;4590;51.462;6.692;2022-12-24T04:23:45;100656.78;;;11.37;74.50
9110;BME280;4590;51.462;6.692;2022-12-24T04:26:12;100648.50;;;11.37;74.57
9110;BME280;4590;51.462;6.692;2022-12-24T04:28:38;100664.22;;;11.36;74.32
9110;BME280;4590;51.462;6.692;2022-12-24T04:31:07;100656.97;;;11.40;74.60
9110;BME280;4590;51.462;6.692;2022-12-24T04:33:33;100650.84;;;11.43;74.60
9110;BME280;4590;51.462;6.692;2022-12-24T04:36:00;100666.22;;;11.44;74.33
9110;BME280;4590;51.462;6.692;2022-12-24T04:38:26;100676.44;;;11.44;74.88
9110;BME280;4590;51.462;6.692;2022-12-24T04:41:00;100677.06;;;11.41;74.57
9110;BME280;4590;51.462;6.692;2022-12-24T04:43:26;100664.97;;;11.50;74.76
9110;BME280;4590;51.462;6.692;2022-12-24T04:45:52;100667.09;;;11.53;74.73
9110;BME280;4590;51.462;6.692;2022-12-24T04:48:17;100678.63;;;11.55;74.42
9110;BME280;4590;51.462;6.692;2022-12-24T04:50:42;100679.44;;;11.56;74.76
9110;BME280;4590;51.462;6.692;2022-12-24T04:53:08;100678.81;;;11.59;74.86
9110;BME280;4590;51.462;6.692;2022-12-24T04:55:33;100684.00;;;11.60;74.51
9110;BME280;4590;51.462;6.692;2022-12-24T04:57:58;100686.78;;;11.60;74.76
9110;BME280;4590;51.462;6.692;2022-12-24T05:00:23;100688.09;;;11.63;74.51
9110;BME280;4590;51.462;6.692;2022-12-24T05:02:49;100687.19;;;11.54;75.07
9110;BME280;4590;51.462;6.692;2022-12-24T05:05:14;100682.06;;;11.61;74.45
9110;BME280;4590;51.462;6.692;2022-12-24T05:07:39;100698.78;;;11.65;74.62
9110;BME280;4590;51.462;6.692;2022-12-24T05:10:05;100691.31;;;11.65;74.63
9110;BME280;4590;51.462;6.692;2022-12-24T05:12:31;100693.75;;;11.67;74.74
9110;BME280;4590;51.462;6.692;2022-12-24T05:14:56;100689.38;;;11.66;74.68
9110;BME280;4590;51.462;6.692;2022-12-24T05:17:21;100693.75;;;11.67;74.43
9110;BME280;4590;51.462;6.692;2022-12-24T05:19:47;100684.88;;;11.70;74.48
9110;BME280;4590;51.462;6.692;2022-12-24T05:22:12;100684.38;;;11.68;74.30
9110;BME280;4590;51.462;6.692;2022-12-24T05:24:56;100686.81;;;11.69;74.44
9110;BME280;4590;51.462;6.692;2022-12-24T05:27:40;100694.25;;;11.69;74.54
9110;BME280;4590;51.462;6.692;2022-12-24T05:30:06;100696.50;;;11.67;74.72
9110;BME280;4590;51.462;6.692;2022-12-24T05:32:31;100709.97;;;11.68;74.66
9110;BME280;4590;51.462;6.692;2022-12-24T05:34:56;100702.53;;;11.69;74.81
9110;BME280;4590;51.462;6.692;2022-12-24T05:37:22;100713.88;;;11.67;74.50
9110;BME280;4590;51.462;6.692;2022-12-24T05:39:47;100713.88;;;11.67;74.57
9110;BME280;4590;51.462;6.692;2022-12-24T05:42:12;100709.16;;;11.68;74.67
9110;BME280;4590;51.462;6.692;2022-12-24T05:44:38;100712.56;;;11.65;74.67
9110;BME280;4590;51.462;6.692;2022-12-24T05:47:03;100709.81;;;11.65;74.77
9110;BME280;4590;51.462;6.692;2022-12-24T05:49:28;100711.75;;;11.64;74.64
9110;BME280;4590;51.462;6.692;2022-12-24T05:51:54;100717.75;;;11.66;74.94
9110;BME280;4590;51.462;6.692;2022-12-24T05:54:20;100716.94;;;11.66;74.96
9110;BME280;4590;51.462;6.692;2022-12-24T05:56:45;100727.66;;;11.67;74.77
9110;BME280;4590;51.462;6.692;2022-12-24T05:59:10;100725.72;;;11.68;74.60
9110;BME280;4590;51.462;6.692;2022-12-24T06:01:35;100733.97;;;11.68;74.71
9110;BME280;4590;51.462;6.692;2022-12-24T06:04:01;100731.72;;;11.70;74.58
9110;BME280;4590;51.462;6.692;2022-12-24T06:06:27;100727.03;;;11.70;74.75
9110;BME280;4590;51.462;6.692;2022-12-24T06:08:53;100729.84;;;11.56;74.67
9110;BME280;4590;51.462;6.692;2022-12-24T06:11:21;100724.88;;;11.67;74.78
9110;BME280;4590;51.462;6.692;2022-12-24T06:13:47;100738.34;;;11.69;74.55
9110;BME280;4590;51.462;6.692;2022-12-24T06:16:15;100741.94;;;11.69;74.94
9110;BME280;4590;51.462;6.692;2022-12-24T06:18:42;100752.66;;;11.71;74.49
9110;BME280;4590;51.462;6.692;2022-12-24T06:21:08;100758.66;;;11.73;74.68
9110;BME280;4590;51.462;6.692;2022-12-24T06:23:36;100744.88;;;11.73;74.56
9110;BME280;4590;51.462;6.692;2022-12-24T06:26:03;100760.28;;;11.74;74.66
9110;BME280;4590;51.462;6.692;2022-12-24T06:28:31;100752.03;;;11.74;74.50
9110;BME280;4590;51.462;6.692;2022-12-24T06:30:57;100757.53;;;11.74;74.29
9110;BME280;4590;51.462;6.692;2022-12-24T06:33:22;100754.28;;;11.72;74.41
9110;BME280;4590;51.462;6.692;2022-12-24T06:35:48;100760.59;;;11.72;74.24
9110;BME280;4590;51.462;6.692;2022-12-24T06:38:14;100762.66;;;11.67;74.49
9110;BME280;4590;51.462;6.692;2022-12-24T06:40:41;100769.81;;;11.68;74.48
9110;BME280;4590;51.462;6.692;2022-12-24T06:43:07;100765.91;;;11.69;74.35
9110;BME280;4590;51.462;6.692;2022-12-24T06:45:32;100765.09;;;11.68;74.47
9110;BME280;4590;51.462;6.692;2022-12-24T06:47:58;100770.63;;;11.68;74.33
9110;BME280;4590;51.462;6.692;2022-12-24T06:50:24;100783.59;;;11.68;74.44
9110;BME280;4590;51.462;6.692;2022-12-24T06:52:49;100776.44;;;11.67;74.37
9110;BME280;4590;51.462;6.692;2022-12-24T06:55:14;100780.53;;;11.69;74.37
9110;BME280;4590;51.462;6.692;2022-12-24T06:57:39;100779.19;;;11.67;74.25
9110;BME280;4590;51.462;6.692;2022-12-24T07:00:06;100780.84;;;11.68;74.33
9110;BME280;4590;51.462;6.692;2022-12-24T07:02:32;100779.69;;;11.69;74.27
9110;BME280;4590;51.462;6.692;2022-12-24T07:04:57;100784.03;;;11.61;74.45
9110;BME280;4590;51.462;6.692;2022-12-24T07:07:22;100792.00;;;11.63;74.30
9110;BME280;4590;51.462;6.692;2022-12-24T07:09:48;100788.13;;;11.64;73.99
9110;BME280;4590;51.462;6.692;2022-12-24T07:12:13;100781.59;;;11.59;73.94
9110;BME280;4590;51.462;6.692;2022-12-24T07:14:38;100800.06;;;11.59;74.25
9110;BME280;4590;51.462;6.692;2022-12-24T07:17:03;100792.09;;;11.57;74.14
9110;BME280;4590;51.462;6.692;2022-12-24T07:19:29;100801.19;;;11.58;74.13
9110;BME280;4590;51.462;6.692;2022-12-24T07:21:54;100796.28;;;11.55;74.30
9110;BME280;4590;51.462;6.692;2022-12-24T07:24:19;100809.25;;;11.54;73.88
9110;BME280;4590;51.462;6.692;2022-12-24T07:26:45;100808.13;;;11.55;73.88
9110;BME280;4590;51.462;6.692;2022-12-24T07:29:10;100809.25;;;11.54;74.18
9110;BME280;4590;51.462;6.692;2022-12-24T07:31:36;100815.59;;;11.55;73.74
9110;BME280;4590;51.462;6.692;2022-12-24T07:34:01;100815.91;;;11.53;74.21
9110;BME280;4590;51.462;6.692;2022-12-24T07:36:26;100814.25;;;11.52;73.95
9110;BME280;4590;51.462;6.692;2022-12-24T07:38:52;100824.16;;;11.53;74.26
9110;BME280;4590;51.462;6.692;2022-12-24T07:41:18;100826.41;;;11.51;73.86
9110;BME280;4590;51.462;6.692;2022-12-24T07:43:43;100828.03;;;11.52;73.97
9110;BME280;4590;51.462;6.692;2022-12-24T07:46:09;100829.47;;;11.50;73.78
9110;BME280;4590;51.462;6.692;2022-12-24T07:48:34;100828.66;;;11.49;73.71
9110;BME280;4590;51.462;6.692;2022-12-24T07:51:00;100839.69;;;11.49;73.81
9110;BME280;4590;51.462;6.692;2022-12-24T07:53:27;100847.16;;;11.49;73.86
9110;BME280;4590;51.462;6.692;2022-12-24T07:55:53;100854.59;;;11.48;73.73
9110;BME280;4590;51.462;6.692;2022-12-24T07:58:18;100854.91;;;11.47;73.90
9110;BME280;4590;51.462;6.692;2022-12-24T08:00:43;100865.94;;;11.47;74.12
9110;BME280;4590;51.462;6.692;2022-12-24T08:03:18;100878.69;;;11.43;73.87
9110;BME280;4590;51.462;6.692;2022-12-24T08:05:45;100873.38;;;11.46;74.11
9110;BME280;4590;51.462;6.692;2022-12-24T08:08:10;100880.03;;;11.45;74.17
9110;BME280;4590;51.462;6.692;2022-12-24T08:10:38;100878.91;;;11.46;73.90
9110;BME280;4590;51.462;6.692;2022-12-24T08:13:04;100884.91;;;11.48;74.08
9110;BME280;4590;51.462;6.692;2022-12-24T08:15:29;100895.59;;;11.50;73.87
9110;BME280;4590;51.462;6.692;2022-12-24T08:17:54;100897.75;;;11.53;73.82
9110;BME280;4590;51.462;6.692;2022-12-24T08:20:20;100906.31;;;11.51;73.89
9110;BME280;4590;51.462;6.692;2022-12-24T08:22:45;100909.59;;;11.53;74.14
9110;BME280;4590;51.462;6.692;2022-12-24T08:25:10;100912.03;;;11.55;73.93
9110;BME280;4590;51.462;6.692;2022-12-24T08:27:36;100921.13;;;11.55;73.79
9110;BME280;4590;51.462;6.692;2022-12-24T08:30:03;100922.16;;;11.59;74.03
9110;BME280;4590;51.462;6.692;2022-12-24T08:32:28;100922.16;;;11.59;74.03
9110;BME280;4590;51.462;6.692;2022-12-24T08:34:54;100927.66;;;11.59;74.22
9110;BME280;4590;51.462;6.692;2022-12-24T08:37:19;100932.84;;;11.61;73.47
9110;BME280;4590;51.462;6.692;2022-12-24T08:39:44;100928.69;;;11.64;73.88
9110;BME280;4590;51.462;6.692;2022-12-24T08:42:10;100932.25;;;11.64;73.83
9110;BME280;4590;51.462;6.692;2022-12-24T08:44:35;100937.75;;;11.64;73.69
9110;BME280;4590;51.462;6.692;2022-12-24T08:47:00;100933.84;;;11.65;73.65
9110;BME280;4590;51.462;6.692;2022-12-24T08:49:25;100936.59;;;11.65;73.83
9110;BME280;4590;51.462;6.692;2022-12-24T08:51:51;100942.94;;;11.66;73.58
9110;BME280;4590;51.462;6.692;2022-12-24T08:54:16;100941.00;;;11.66;73.40
9110;BME280;4590;51.462;6.692;2022-12-24T08:56:41;100941.63;;;11.63;73.67
9110;BME280;4590;51.462;6.692;2022-12-24T08:59:07;100938.59;;;11.65;73.65
9110;BME280;4590;51.462;6.692;2022-12-24T09:01:32;100939.38;;;11.65;73.66
9110;BME280;4590;51.462;6.692;2022-12-24T09:04:00;100952.38;;;11.65;73.56
9110;BME280;4590;51.462;6.692;2022-12-24T09:06:26;100960.28;;;11.66;73.37
9110;BME280;4590;51.462;6.692;2022-12-24T09:08:51;100962.75;;;11.68;73.45
9110;BME280;4590;51.462;6.692;2022-12-24T09:11:17;100962.75;;;11.68;73.93
9110;BME280;4590;51.462;6.692;2022-12-24T09:13:43;100959.38;;;11.71;73.61
9110;BME280;4590;51.462;6.692;2022-12-24T09:16:09;100970.91;;;11.73;73.77
9110;BME280;4590;51.462;6.692;2022-12-24T09:18:34;100974.19;;;11.75;73.75
9110;BME280;4590;51.462;6.692;2022-12-24T09:21:01;100977.47;;;11.77;73.85
9110;BME280;4590;51.462;6.692;2022-12-24T09:23:28;100976.88;;;11.80;73.78
9110;BME280;4590;51.462;6.692;2022-12-24T09:25:53;100983.06;;;11.72;73.48
9110;BME280;4590;51.462;6.692;2022-12-24T09:28:21;100985.00;;;11.85;73.76
9110;BME280;4590;51.462;6.692;2022-12-24T09:31:01;100996.16;;;11.80;73.44
9110;BME280;4590;51.462;6.692;2022-12-24T09:33:29;100995.44;;;11.88;73.90
9110;BME280;4590;51.462;6.692;2022-12-24T09:35:55;100996.44;;;11.92;73.49
9110;BME280;4590;51.462;6.692;2022-12-24T09:38:21;100999.06;;;11.97;73.51
9110;BME280;4590;51.462;6.692;2022-12-24T09:40:47;101001.72;;;12.02;73.70
9110;BME280;4590;51.462;6.692;2022-12-24T09:43:16;100996.13;;;12.07;73.49
9110;BME280;4590;51.462;6.692;2022-12-24T09:48:38;101019.38;;;12.15;73.31
9110;BME280;4590;51.462;6.692;2022-12-24T09:51:10;101022.53;;;12.22;73.21
9110;BME280;4590;51.462;6.692;2022-12-24T09:53:42;101023.34;;;12.22;72.87
9110;BME280;4590;51.462;6.692;2022-12-24T09:56:16;101023.72;;;12.29;73.15
9110;BME280;4590;51.462;6.692;2022-12-24T09:58:46;101013.72;;;12.34;72.99
9110;BME280;4590;51.462;6.692;2022-12-24T10:01:14;101024.75;;;12.34;72.87
9110;BME280;4590;51.462;6.692;2022-12-24T10:03:40;101020.56;;;12.36;73.22
9110;BME280;4590;51.462;6.692;2022-12-24T10:06:12;101028.00;;;12.36;72.70
9110;BME280;4590;51.462;6.692;2022-12-24T10:14:25;101035.69;;;12.39;72.38
9110;BME280;4590;51.462;6.692;2022-12-24T10:16:57;101038.13;;;12.40;72.35
9110;BME280;4590;51.462;6.692;2022-12-24T10:19:56;101035.97;;;12.37;72.17
9110;BME280;4590;51.462;6.692;2022-12-24T10:27:32;101044.22;;;12.51;72.28
9110;BME280;4590;51.462;6.692;2022-12-24T10:30:03;101051.25;;;12.57;72.34
9110;BME280;4590;51.462;6.692;2022-12-24T10:32:31;101039.47;;;12.65;72.62
9110;BME280;4590;51.462;6.692;2022-12-24T10:37:28;101044.09;;;12.78;72.26
9110;BME280;4590;51.462;6.692;2022-12-24T10:39:54;101046.25;;;12.81;72.27
9110;BME280;4590;51.462;6.692;2022-12-24T10:42:22;101032.75;;;12.80;71.99
9110;BME280;4590;51.462;6.692;2022-12-24T10:44:54;101032.44;;;12.81;71.72
9110;BME280;4590;51.462;6.692;2022-12-24T10:47:21;101025.97;;;12.86;71.73
9110;BME280;4590;51.462;6.692;2022-12-24T10:49:53;101026.28;;;12.84;71.22
9110;BME280;4590;51.462;6.692;2022-12-24T10:52:24;101031.50;;;12.86;71.78
9110;BME280;4590;51.462;6.692;2022-12-24T10:57:32;101031.69;;;12.89;71.59
9110;BME280;4590;51.462;6.692;2022-12-24T10:59:58;101037.69;;;12.91;71.37
9110;BME280;4590;51.462;6.692;2022-12-24T11:02:35;101040.78;;;12.90;71.15
9110;BME280;4590;51.462;6.692;2022-12-24T11:05:06;101049.56;;;12.92;71.38
9110;BME280;4590;51.462;6.692;2022-12-24T11:07:32;101035.13;;;12.95;71.52
9110;BME280;4590;51.462;6.692;2022-12-24T11:10:03;101039.00;;;12.94;71.20
9110;BME280;4590;51.462;6.692;2022-12-24T11:12:31;101043.09;;;12.96;71.10
9110;BME280;4590;51.462;6.692;2022-12-24T11:15:21;101042.41;;;12.91;70.61
9110;BME280;4590;51.462;6.692;2022-12-24T11:18:03;101034.94;;;12.91;70.65
9110;BME280;4590;51.462;6.692;2022-12-24T11:20:32;101032.56;;;12.98;71.00
9110;BME280;4590;51.462;6.692;2022-12-24T11:22:58;101025.09;;;12.99;70.99
9110;BME280;4590;51.462;6.692;2022-12-24T11:25:26;101023.63;;;13.02;70.92
9110;BME280;4590;51.462;6.692;2022-12-24T11:27:54;101023.81;;;13.05;70.84
9110;BME280;4590;51.462;6.692;2022-12-24T11:30:30;101028.34;;;13.01;69.73
9110;BME280;4590;51.462;6.692;2022-12-24T11:35:24;101029.97;;;13.02;70.63
9110;BME280;4590;51.462;6.692;2022-12-24T11:38:11;101040.97;;;12.93;69.87
9110;BME280;4590;51.462;6.692;2022-12-24T11:40:42;101037.06;;;12.94;70.22
9110;BME280;4590;51.462;6.692;2022-12-24T11:43:20;101036.13;;;12.99;70.20
9110;BME280;4590;51.462;6.692;2022-12-24T11:45:55;101040.22;;;13.02;70.27
9110;BME280;4590;51.462;6.692;2022-12-24T11:48:25;101041.84;;;13.03;70.20
9110;BME280;4590;51.462;6.692;2022-12-24T11:51:01;101050.13;;;13.03;70.11
9110;BME280;4590;51.462;6.692;2022-12-24T11:53:35;101061.69;;;13.05;70.04
9110;BME280;4590;51.462;6.692;2022-12-24T11:56:13;101047.06;;;13.04;69.78
9110;BME280;4590;51.462;6.692;2022-12-24T11:58:46;101051.47;;;13.05;69.68
9110;BME280;4590;51.462;6.692;2022-12-24T12:01:34;101055.34;;;13.04;69.39
9110;BME280;4590;51.462;6.692;2022-12-24T12:04:17;101056.16;;;13.05;69.45
9110;BME280;4590;51.462;6.692;2022-12-24T12:07:04;101046.56;;;13.02;68.93
9110;BME280;4590;51.462;6.692;2022-12-24T12:09:33;101058.41;;;13.03;69.66
9110;BME280;4590;51.462;6.692;2022-12-24T12:12:06;101059.41;;;13.07;69.53
9110;BME280;4590;51.462;6.692;2022-12-24T12:14:37;101058.78;;;13.10;69.39
9110;BME280;4590;51.462;6.692;2022-12-24T12:19:56;101069.47;;;13.03;68.71
9110;BME280;4590;51.462;6.692;2022-12-24T12:22:30;101069.31;;;13.08;68.63
9110;BME280;4590;51.462;6.692;2022-12-24T12:24:59;101070.00;;;13.13;69.32
9110;BME280;4590;51.462;6.692;2022-12-24T12:27:34;101062.84;;;13.12;69.34
9110;BME280;4590;51.462;6.692;2022-12-24T12:30:13;101064.31;;;13.10;68.63
9110;BME280;4590;51.462;6.692;2022-12-24T12:33:08;101064.00;;;13.11;68.65
9110;BME280;4590;51.462;6.692;2022-12-24T12:35:40;101073.00;;;13.17;69.18
9110;BME280;4590;51.462;6.692;2022-12-24T12:38:20;101077.72;;;13.16;68.80
9110;BME280;4590;51.462;6.692;2022-12-24T12:43:34;101080.38;;;13.08;68.21
9110;BME280;4590;51.462;6.692;2022-12-24T12:57:13;101084.66;;;13.14;68.61
9110;BME280;4590;51.462;6.692;2022-12-24T12:59:44;101086.59;;;13.13;68.37
9110;BME280;4590;51.462;6.692;2022-12-24T13:02:44;101089.47;;;13.08;67.76
9110;BME280;4590;51.462;6.692;2022-12-24T13:08:37;101094.19;;;13.08;67.57
9110;BME280;4590;51.462;6.692;2022-12-24T13:11:12;101100.00;;;13.20;67.91
9110;BME280;4590;51.462;6.692;2022-12-24T13:14:02;101107.56;;;13.14;67.06
9110;BME280;4590;51.462;6.692;2022-12-24T13:21:41;101100.75;;;13.34;67.45
9110;BME280;4590;51.462;6.692;2022-12-24T13:24:17;101100.59;;;13.39;67.07
9110;BME280;4590;51.462;6.692;2022-12-24T13:27:19;101109.38;;;13.41;66.38
9110;BME280;4590;51.462;6.692;2022-12-24T13:29:50;101110.44;;;13.54;67.06
9110;BME280;4590;51.462;6.692;2022-12-24T13:34:51;101119.69;;;13.80;67.15
9110;BME280;4590;51.462;6.692;2022-12-24T13:47:54;101113.78;;;14.21;65.93
9110;BME280;4590;51.462;6.692;2022-12-24T13:50:44;101117.38;;;14.22;65.62
9110;BME280;4590;51.462;6.692;2022-12-24T13:53:27;101121.00;;;14.31;64.98
9110;BME280;4590;51.462;6.692;2022-12-24T13:56:07;101112.34;;;14.32;64.06
9110;BME280;4590;51.462;6.692;2022-12-24T13:58:36;101111.38;;;14.28;64.41
9110;BME280;4590;51.462;6.692;2022-12-24T14:01:15;101132.03;;;14.14;63.49
9110;BME280;4590;51.462;6.692;2022-12-24T14:06:19;101133.75;;;14.01;64.20
9110;BME280;4590;51.462;6.692;2022-12-24T14:08:47;101124.59;;;13.92;63.97
9110;BME280;4590;51.462;6.692;2022-12-24T14:11:16;101138.09;;;13.85;64.02
9110;BME280;4590;51.462;6.692;2022-12-24T14:16:29;101142.84;;;13.62;63.73
9110;BME280;4590;51.462;6.692;2022-12-24T14:19:02;101141.84;;;13.58;64.17
9110;BME280;4590;51.462;6.692;2022-12-24T14:21:32;101148.66;;;13.52;64.41
9110;BME280;4590;51.462;6.692;2022-12-24T14:24:21;101149.38;;;13.35;63.99
9110;BME280;4590;51.462;6.692;2022-12-24T14:26:58;101151.31;;;13.34;64.46
9110;BME280;4590;51.462;6.692;2022-12-24T14:29:31;101151.94;;;13.31;64.61
9110;BME280;4590;51.462;6.692;2022-12-24T14:31:59;101162.47;;;13.29;64.92
9110;BME280;4590;51.462;6.692;2022-12-24T14:34:28;101176.41;;;13.24;65.12
9110;BME280;4590;51.462;6.692;2022-12-24T14:36:54;101174.41;;;13.16;65.12
9110;BME280;4590;51.462;6.692;2022-12-24T14:39:25;101185.50;;;13.03;64.36
9110;BME280;4590;51.462;6.692;2022-12-24T14:42:21;101183.34;;;12.99;64.67